sensor_id;sensor_type;location;lat;lon;timestamp;pressure;altitude;pressure_sealevel;temperature;humidity
77263;BME280;66373;52.334;4.806;2023-11-21T00:02:00;100939.75;;;17.14;66.99
77263;BME280;66373;52.334;4.806;2023-11-21T00:04:37;100977.41;;;17.43;67.42
77263;BME280;66373;52.334;4.806;2023-11-21T00:07:06;100881.38;;;16.80;67.17
77263;BME280;66373;52.334;4.806;2023-11-21T00:09:57;101016.97;;;17.63;66.89
77263;BME280;66373;52.334;4.806;2023-11-21T00:12:26;100967.22;;;17.30;67.35
77263;BME280;66373;52.334;4.806;2023-11-21T00:14:55;100974.91;;;17.37;66.87
77263;BME280;66373;52.334;4.806;2023-11-21T00:17:22;100940.44;;;17.25;67.65
77263;BME280;66373;52.334;4.806;2023-11-21T00:19:51;100936.97;;;17.23;67.51
77263;BME280;66373;52.334;4.806;2023-11-21T00:22:19;101016.00;;;17.70;67.97
77263;BME280;66373;52.334;4.806;2023-11-21T00:24:46;100988.41;;;17.60;67.76
77263;BME280;66373;52.334;4.806;2023-11-21T00:27:13;101006.38;;;17.75;67.83
77263;BME280;66373;52.334;4.806;2023-11-21T00:29:41;100961.66;;;17.52;67.79
77263;BME280;66373;52.334;4.806;2023-11-21T00:32:08;101026.75;;;18.00;68.10
77263;BME280;66373;52.334;4.806;2023-11-21T00:34:35;101033.56;;;18.07;67.79
77263;BME280;66373;52.334;4.806;2023-11-21T00:37:04;101034.34;;;18.12;67.76
77263;BME280;66373;52.334;4.806;2023-11-21T00:39:31;101029.03;;;18.18;67.84
77263;BME280;66373;52.334;4.806;2023-11-21T00:41:58;100957.78;;;17.77;67.65
77263;BME280;66373;52.334;4.806;2023-11-21T00:44:25;100945.69;;;17.73;67.65
77263;BME280;66373;52.334;4.806;2023-11-21T00:46:52;100966.13;;;17.93;67.29
77263;BME280;66373;52.334;4.806;2023-11-21T00:49:20;101032.97;;;18.39;67.13
77263;BME280;66373;52.334;4.806;2023-11-21T00:51:48;101003.69;;;18.26;67.40
77263;BME280;66373;52.334;4.806;2023-11-21T00:54:17;100959.06;;;18.00;67.42
77263;BME280;66373;52.334;4.806;2023-11-21T00:56:44;100958.06;;;18.08;67.06
77263;BME280;66373;52.334;4.806;2023-11-21T00:59:13;100967.34;;;18.20;66.95
77263;BME280;66373;52.334;4.806;2023-11-21T01:01:40;100971.78;;;18.16;67.34
77263;BME280;66373;52.334;4.806;2023-11-21T01:04:08;101045.59;;;18.60;67.07
77263;BME280;66373;52.334;4.806;2023-11-21T01:06:35;101048.94;;;18.67;66.77
77263;BME280;66373;52.334;4.806;2023-11-21T01:09:02;101048.94;;;18.67;66.58
77263;BME280;66373;52.334;4.806;2023-11-21T01:11:35;101039.53;;;18.59;66.61
77263;BME280;66373;52.334;4.806;2023-11-21T01:14:03;101058.34;;;18.74;66.28
77263;BME280;66373;52.334;4.806;2023-11-21T01:16:30;101053.22;;;18.71;66.37
77263;BME280;66373;52.334;4.806;2023-11-21T01:18:58;101056.56;;;18.76;66.37
77263;BME280;66373;52.334;4.806;2023-11-21T01:21:25;101060.84;;;18.78;66.26
77263;BME280;66373;52.334;4.806;2023-11-21T01:23:53;101075.56;;;18.81;66.23
77263;BME280;66373;52.334;4.806;2023-11-21T01:26:21;101079.00;;;18.83;66.36
77263;BME280;66373;52.334;4.806;2023-11-21T01:28:49;101078.13;;;18.84;66.49
77263;BME280;66373;52.334;4.806;2023-11-21T01:31:16;101087.59;;;18.88;66.20
77263;BME280;66373;52.334;4.806;2023-11-21T01:33:43;101079.91;;;18.82;66.25
77263;BME280;66373;52.334;4.806;2023-11-21T01:36:10;101070.25;;;18.87;66.03
77263;BME280;66373;52.334;4.806;2023-11-21T01:38:37;101034.22;;;18.66;66.51
77263;BME280;66373;52.334;4.806;2023-11-21T01:41:05;101079.47;;;19.02;66.15
77263;BME280;66373;52.334;4.806;2023-11-21T01:43:32;101094.13;;;19.07;66.17
77263;BME280;66373;52.334;4.806;2023-11-21T01:46:00;101099.28;;;19.10;66.27
77263;BME280;66373;52.334;4.806;2023-11-21T01:48:28;101079.50;;;19.00;66.03
77263;BME280;66373;52.334;4.806;2023-11-21T01:50:55;101092.41;;;19.06;66.27
77263;BME280;66373;52.334;4.806;2023-11-21T01:53:24;101083.63;;;19.10;65.76
77263;BME280;66373;52.334;4.806;2023-11-21T01:55:52;101093.94;;;19.16;66.02
77263;BME280;66373;52.334;4.806;2023-11-21T01:58:20;101092.13;;;19.20;65.55
77263;BME280;66373;52.334;4.806;2023-11-21T02:00:47;101081.88;;;19.12;65.76
77263;BME280;66373;52.334;4.806;2023-11-21T02:03:17;101102.53;;;19.21;65.67
77263;BME280;66373;52.334;4.806;2023-11-21T02:05:45;101109.31;;;19.28;65.26
77263;BME280;66373;52.334;4.806;2023-11-21T02:08:12;101105.69;;;19.36;65.41
77263;BME280;66373;52.334;4.806;2023-11-21T02:10:40;101095.38;;;19.29;65.03
77263;BME280;66373;52.334;4.806;2023-11-21T02:13:07;101109.13;;;19.38;64.94
77263;BME280;66373;52.334;4.806;2023-11-21T02:15:34;101105.69;;;19.36;65.11
77263;BME280;66373;52.334;4.806;2023-11-21T02:18:03;101095.31;;;19.32;65.15
77263;BME280;66373;52.334;4.806;2023-11-21T02:20:33;100987.16;;;18.72;64.75
77263;BME280;66373;52.334;4.806;2023-11-21T02:23:04;101080.63;;;19.28;64.94
77263;BME280;66373;52.334;4.806;2023-11-21T02:25:32;101121.06;;;19.48;64.96
77263;BME280;66373;52.334;4.806;2023-11-21T02:28:02;101124.47;;;19.50;65.09
77263;BME280;66373;52.334;4.806;2023-11-21T02:30:30;101126.22;;;19.51;64.53
77263;BME280;66373;52.334;4.806;2023-11-21T02:32:58;101129.69;;;19.51;64.65
77263;BME280;66373;52.334;4.806;2023-11-21T02:35:25;101096.06;;;19.38;65.02
77263;BME280;66373;52.334;4.806;2023-11-21T02:37:52;101103.84;;;19.41;65.13
77263;BME280;66373;52.334;4.806;2023-11-21T02:40:21;101121.81;;;19.54;65.03
77263;BME280;66373;52.334;4.806;2023-11-21T02:42:50;101118.38;;;19.52;65.03
77263;BME280;66373;52.334;4.806;2023-11-21T02:45:19;101126.09;;;19.57;65.00
77263;BME280;66373;52.334;4.806;2023-11-21T02:47:46;101055.72;;;19.15;64.52
77263;BME280;66373;52.334;4.806;2023-11-21T02:50:15;101129.63;;;19.54;64.50
77263;BME280;66373;52.334;4.806;2023-11-21T02:52:42;101125.34;;;19.52;64.68
77263;BME280;66373;52.334;4.806;2023-11-21T02:55:09;101126.16;;;19.54;64.60
77263;BME280;66373;52.334;4.806;2023-11-21T02:57:38;101115.06;;;19.44;64.29
77263;BME280;66373;52.334;4.806;2023-11-21T03:00:06;101127.91;;;19.53;64.36
77263;BME280;66373;52.334;4.806;2023-11-21T03:02:34;101121.13;;;19.45;63.85
77263;BME280;66373;52.334;4.806;2023-11-21T03:05:05;101126.28;;;19.48;63.99
77263;BME280;66373;52.334;4.806;2023-11-21T03:07:32;101136.66;;;19.51;64.11
77263;BME280;66373;52.334;4.806;2023-11-21T03:09:59;101122.13;;;19.39;63.64
77263;BME280;66373;52.334;4.806;2023-11-21T03:12:26;101091.97;;;19.26;64.09
77263;BME280;66373;52.334;4.806;2023-11-21T03:14:54;101136.78;;;19.45;63.89
77263;BME280;66373;52.334;4.806;2023-11-21T03:17:21;101137.53;;;19.51;63.85
77263;BME280;66373;52.334;4.806;2023-11-21T03:19:50;101140.97;;;19.53;63.76
77263;BME280;66373;52.334;4.806;2023-11-21T03:22:17;101138.31;;;19.55;63.33
77263;BME280;66373;52.334;4.806;2023-11-21T03:24:45;101135.00;;;19.47;63.55
77263;BME280;66373;52.334;4.806;2023-11-21T03:27:11;101149.66;;;19.54;63.36
77263;BME280;66373;52.334;4.806;2023-11-21T03:29:38;101081.03;;;19.10;63.05
77263;BME280;66373;52.334;4.806;2023-11-21T03:32:07;101083.56;;;19.13;63.33
77263;BME280;66373;52.334;4.806;2023-11-21T03:34:34;101160.00;;;19.57;63.46
77263;BME280;66373;52.334;4.806;2023-11-21T03:37:02;101173.06;;;19.57;63.58
77263;BME280;66373;52.334;4.806;2023-11-21T03:39:29;101177.44;;;19.56;63.53
77263;BME280;66373;52.334;4.806;2023-11-21T03:41:56;101157.66;;;19.45;63.25
77263;BME280;66373;52.334;4.806;2023-11-21T03:44:23;101188.72;;;19.57;63.40
77263;BME280;66373;52.334;4.806;2023-11-21T03:46:52;101169.81;;;19.46;63.30
77263;BME280;66373;52.334;4.806;2023-11-21T03:49:20;101154.22;;;19.43;63.25
77263;BME280;66373;52.334;4.806;2023-11-21T03:51:47;101159.41;;;19.44;63.40
77263;BME280;66373;52.334;4.806;2023-11-21T03:54:14;101173.13;;;19.54;62.91
77263;BME280;66373;52.334;4.806;2023-11-21T03:56:41;101168.09;;;19.45;63.16
77263;BME280;66373;52.334;4.806;2023-11-21T03:59:11;101166.38;;;19.44;63.19
77263;BME280;66373;52.334;4.806;2023-11-21T04:01:38;101193.06;;;19.56;62.88
77263;BME280;66373;52.334;4.806;2023-11-21T04:04:05;101185.41;;;19.49;63.13
77263;BME280;66373;52.334;4.806;2023-11-21T04:06:33;101190.63;;;19.49;63.00
77263;BME280;66373;52.334;4.806;2023-11-21T04:09:02;101211.38;;;19.55;63.32
77263;BME280;66373;52.334;4.806;2023-11-21T04:11:30;101144.44;;;19.12;63.19
77263;BME280;66373;52.334;4.806;2023-11-21T04:13:57;101209.66;;;19.54;62.82
77263;BME280;66373;52.334;4.806;2023-11-21T04:16:24;101207.94;;;19.53;63.36
77263;BME280;66373;52.334;4.806;2023-11-21T04:18:51;101201.16;;;19.44;62.96
77263;BME280;66373;52.334;4.806;2023-11-21T04:21:18;101202.91;;;19.44;63.22
77263;BME280;66373;52.334;4.806;2023-11-21T04:23:46;101203.75;;;19.44;62.67
77263;BME280;66373;52.334;4.806;2023-11-21T04:26:14;101172.06;;;19.22;63.40
77263;BME280;66373;52.334;4.806;2023-11-21T04:28:41;101220.16;;;19.51;62.93
77263;BME280;66373;52.334;4.806;2023-11-21T04:31:08;101227.16;;;19.49;62.86
77263;BME280;66373;52.334;4.806;2023-11-21T04:33:35;101237.59;;;19.49;62.87
77263;BME280;66373;52.334;4.806;2023-11-21T04:36:02;101236.72;;;19.48;62.86
77263;BME280;66373;52.334;4.806;2023-11-21T04:38:29;101210.03;;;19.36;62.83
77263;BME280;66373;52.334;4.806;2023-11-21T04:40:57;101241.09;;;19.48;62.75
77263;BME280;66373;52.334;4.806;2023-11-21T04:43:24;101230.78;;;19.42;62.68
77263;BME280;66373;52.334;4.806;2023-11-21T04:45:51;101235.13;;;19.41;62.69
77263;BME280;66373;52.334;4.806;2023-11-21T04:48:18;101250.69;;;19.46;63.09
77263;BME280;66373;52.334;4.806;2023-11-21T04:50:46;101219.72;;;19.29;62.78
77263;BME280;66373;52.334;4.806;2023-11-21T04:53:13;101244.72;;;19.41;63.06
77263;BME280;66373;52.334;4.806;2023-11-21T04:55:40;101207.09;;;19.09;62.78
77263;BME280;66373;52.334;4.806;2023-11-21T04:58:09;101265.53;;;19.44;62.81
77263;BME280;66373;52.334;4.806;2023-11-21T05:00:37;101238.88;;;19.26;62.93
77263;BME280;66373;52.334;4.806;2023-11-21T05:03:04;101244.88;;;19.31;62.94
77263;BME280;66373;52.334;4.806;2023-11-21T05:05:32;101245.00;;;19.25;63.03
77263;BME280;66373;52.334;4.806;2023-11-21T05:08:00;101271.69;;;19.40;63.23
77263;BME280;66373;52.334;4.806;2023-11-21T05:10:27;101267.44;;;19.34;62.89
77263;BME280;66373;52.334;4.806;2023-11-21T05:12:55;101260.59;;;19.28;62.70
77263;BME280;66373;52.334;4.806;2023-11-21T05:15:23;101289.13;;;19.38;62.86
77263;BME280;66373;52.334;4.806;2023-11-21T05:17:50;101268.44;;;19.27;63.26
77263;BME280;66373;52.334;4.806;2023-11-21T05:20:18;101290.00;;;19.37;62.79
77263;BME280;66373;52.334;4.806;2023-11-21T05:22:46;101284.81;;;19.35;62.65
77263;BME280;66373;52.334;4.806;2023-11-21T05:25:14;101295.22;;;19.37;63.31
77263;BME280;66373;52.334;4.806;2023-11-21T05:27:42;101292.72;;;19.30;62.91
77263;BME280;66373;52.334;4.806;2023-11-21T05:30:10;101279.03;;;19.21;63.07
77263;BME280;66373;52.334;4.806;2023-11-21T05:32:40;101294.50;;;19.28;63.18
77263;BME280;66373;52.334;4.806;2023-11-21T05:35:08;101302.31;;;19.28;63.00
77263;BME280;66373;52.334;4.806;2023-11-21T05:37:39;101294.66;;;19.21;62.75
77263;BME280;66373;52.334;4.806;2023-11-21T05:40:08;101318.81;;;19.30;63.19
77263;BME280;66373;52.334;4.806;2023-11-21T05:42:35;101312.75;;;19.28;63.24
77263;BME280;66373;52.334;4.806;2023-11-21T05:45:04;101314.47;;;19.29;63.21
77263;BME280;66373;52.334;4.806;2023-11-21T05:47:36;101311.19;;;19.20;63.42
77263;BME280;66373;52.334;4.806;2023-11-21T05:50:07;101329.28;;;19.29;63.18
77263;BME280;66373;52.334;4.806;2023-11-21T05:52:37;101255.28;;;18.88;62.79
77263;BME280;66373;52.334;4.806;2023-11-21T05:55:06;101331.91;;;19.27;63.47
77263;BME280;66373;52.334;4.806;2023-11-21T05:57:34;101301.16;;;18.97;62.95
77263;BME280;66373;52.334;4.806;2023-11-21T06:00:03;101308.81;;;19.06;63.30
77263;BME280;66373;52.334;4.806;2023-11-21T06:02:37;101333.81;;;19.19;63.40
77263;BME280;66373;52.334;4.806;2023-11-21T06:05:07;101344.09;;;19.25;63.61
77263;BME280;66373;52.334;4.806;2023-11-21T06:07:35;101347.59;;;19.24;63.56
77263;BME280;66373;52.334;4.806;2023-11-21T06:10:02;101354.53;;;19.25;63.49
77263;BME280;66373;52.334;4.806;2023-11-21T06:12:32;101361.53;;;19.23;63.49
77263;BME280;66373;52.334;4.806;2023-11-21T06:15:02;101343.47;;;19.13;63.99
77263;BME280;66373;52.334;4.806;2023-11-21T06:17:31;101361.53;;;19.23;63.84
77263;BME280;66373;52.334;4.806;2023-11-21T06:19:58;101341.75;;;19.13;63.66
77263;BME280;66373;52.334;4.806;2023-11-21T06:22:27;101360.66;;;19.24;64.16
77263;BME280;66373;52.334;4.806;2023-11-21T06:24:56;101334.94;;;19.03;63.99
77263;BME280;66373;52.334;4.806;2023-11-21T06:27:23;101363.38;;;19.18;64.00
77263;BME280;66373;52.334;4.806;2023-11-21T06:29:51;101357.34;;;19.15;64.05
77263;BME280;66373;52.334;4.806;2023-11-21T06:32:18;101371.97;;;19.23;63.92
77263;BME280;66373;52.334;4.806;2023-11-21T06:34:46;101312.69;;;18.85;64.01
77263;BME280;66373;52.334;4.806;2023-11-21T06:37:15;101323.97;;;18.86;64.22
77263;BME280;66373;52.334;4.806;2023-11-21T06:39:48;101317.16;;;18.76;63.86
77263;BME280;66373;52.334;4.806;2023-11-21T06:42:19;101308.50;;;18.74;64.21
77263;BME280;66373;52.334;4.806;2023-11-21T06:44:47;101361.91;;;19.02;64.08
77263;BME280;66373;52.334;4.806;2023-11-21T06:47:17;101364.47;;;19.05;63.85
77263;BME280;66373;52.334;4.806;2023-11-21T06:49:46;101346.50;;;18.90;64.01
77263;BME280;66373;52.334;4.806;2023-11-21T06:52:14;101315.63;;;18.66;64.35
77263;BME280;66373;52.334;4.806;2023-11-21T06:54:42;101398.19;;;19.16;64.11
77263;BME280;66373;52.334;4.806;2023-11-21T06:57:10;101384.41;;;19.09;63.91
77263;BME280;66373;52.334;4.806;2023-11-21T06:59:37;101400.00;;;19.12;64.08
77263;BME280;66373;52.334;4.806;2023-11-21T07:02:04;101381.94;;;19.00;64.05
77263;BME280;66373;52.334;4.806;2023-11-21T07:04:32;101419.00;;;19.20;64.08
77263;BME280;66373;52.334;4.806;2023-11-21T07:06:59;101432.88;;;19.22;64.06
77263;BME280;66373;52.334;4.806;2023-11-21T07:09:26;101417.41;;;19.10;64.33
77263;BME280;66373;52.334;4.806;2023-11-21T07:11:56;101429.44;;;19.20;64.76
77263;BME280;66373;52.334;4.806;2023-11-21T07:14:26;101379.66;;;18.80;64.51
77263;BME280;66373;52.334;4.806;2023-11-21T07:16:54;101419.22;;;19.05;64.09
77263;BME280;66373;52.334;4.806;2023-11-21T07:19:21;101417.53;;;19.01;64.33
77263;BME280;66373;52.334;4.806;2023-11-21T07:21:48;101392.63;;;18.85;64.10
77263;BME280;66373;52.334;4.806;2023-11-21T07:24:17;101390.97;;;18.79;64.32
77263;BME280;66373;52.334;4.806;2023-11-21T07:26:44;101366.06;;;18.58;64.35
77263;BME280;66373;52.334;4.806;2023-11-21T07:29:11;101448.00;;;18.99;64.38
77263;BME280;66373;52.334;4.806;2023-11-21T07:31:40;101420.44;;;18.83;64.34
77263;BME280;66373;52.334;4.806;2023-11-21T07:34:14;101431.75;;;18.83;64.43
77263;BME280;66373;52.334;4.806;2023-11-21T07:36:45;101393.84;;;18.62;64.60
77263;BME280;66373;52.334;4.806;2023-11-21T07:39:12;101418.94;;;18.70;64.01
77263;BME280;66373;52.334;4.806;2023-11-21T07:41:41;101419.72;;;18.73;64.59
77263;BME280;66373;52.334;4.806;2023-11-21T07:44:15;101430.16;;;18.72;64.68
77263;BME280;66373;52.334;4.806;2023-11-21T07:46:48;101474.09;;;18.97;64.27
77263;BME280;66373;52.334;4.806;2023-11-21T07:49:15;101500.00;;;19.08;64.29
77263;BME280;66373;52.334;4.806;2023-11-21T07:51:45;101485.34;;;19.01;64.19
77263;BME280;66373;52.334;4.806;2023-11-21T07:54:13;101481.19;;;18.89;63.76
77263;BME280;66373;52.334;4.806;2023-11-21T07:56:40;101457.09;;;18.72;64.25
77263;BME280;66373;52.334;4.806;2023-11-21T07:59:08;101468.28;;;18.79;63.91
77263;BME280;66373;52.334;4.806;2023-11-21T08:01:38;101494.16;;;18.94;64.02
77263;BME280;66373;52.334;4.806;2023-11-21T08:04:09;101503.69;;;18.95;64.02
77263;BME280;66373;52.334;4.806;2023-11-21T08:06:36;101527.00;;;19.06;64.33
77263;BME280;66373;52.334;4.806;2023-11-21T08:09:03;101490.88;;;18.80;64.04
77263;BME280;66373;52.334;4.806;2023-11-21T08:11:30;101539.22;;;19.02;64.30
77263;BME280;66373;52.334;4.806;2023-11-21T08:13:59;101544.44;;;19.02;64.31
77263;BME280;66373;52.334;4.806;2023-11-21T08:16:26;101533.25;;;18.94;63.89
77263;BME280;66373;52.334;4.806;2023-11-21T08:18:53;101535.88;;;18.94;64.44
77263;BME280;66373;52.334;4.806;2023-11-21T08:21:22;101560.06;;;19.02;64.03
77263;BME280;66373;52.334;4.806;2023-11-21T08:23:50;101535.09;;;18.86;64.28
77263;BME280;66373;52.334;4.806;2023-11-21T08:26:19;101558.34;;;19.01;64.60
77263;BME280;66373;52.334;4.806;2023-11-21T08:28:46;101567.09;;;18.97;63.79
77263;BME280;66373;52.334;4.806;2023-11-21T08:31:14;101574.03;;;18.98;64.43
77263;BME280;66373;52.334;4.806;2023-11-21T08:33:41;101551.50;;;18.94;64.64
77263;BME280;66373;52.334;4.806;2023-11-21T08:36:09;101565.34;;;18.97;64.65
77263;BME280;66373;52.334;4.806;2023-11-21T08:38:39;101576.59;;;19.01;64.80
77263;BME280;66373;52.334;4.806;2023-11-21T08:41:07;101567.09;;;18.97;64.24
77263;BME280;66373;52.334;4.806;2023-11-21T08:43:34;101572.25;;;19.00;64.48
77263;BME280;66373;52.334;4.806;2023-11-21T08:46:05;101580.09;;;19.00;64.56
77263;BME280;66373;52.334;4.806;2023-11-21T08:48:35;101583.56;;;18.99;64.85
77263;BME280;66373;52.334;4.806;2023-11-21T08:51:02;101590.50;;;19.00;64.76
77263;BME280;66373;52.334;4.806;2023-11-21T08:53:30;101599.19;;;19.01;64.11
77263;BME280;66373;52.334;4.806;2023-11-21T08:55:58;101594.00;;;18.99;64.65
77263;BME280;66373;52.334;4.806;2023-11-21T08:58:26;101604.44;;;18.99;64.44
77263;BME280;66373;52.334;4.806;2023-11-21T09:00:53;101607.03;;;18.99;64.78
77263;BME280;66373;52.334;4.806;2023-11-21T09:03:20;101617.47;;;18.99;64.55
77263;BME280;66373;52.334;4.806;2023-11-21T09:05:47;101607.19;;;18.90;64.64
77263;BME280;66373;52.334;4.806;2023-11-21T09:08:14;101626.16;;;18.98;64.53
77263;BME280;66373;52.334;4.806;2023-11-21T09:10:41;101618.34;;;18.98;64.70
77263;BME280;66373;52.334;4.806;2023-11-21T09:13:14;101607.22;;;18.87;64.85
77263;BME280;66373;52.334;4.806;2023-11-21T09:15:43;101622.75;;;18.96;65.19
77263;BME280;66373;52.334;4.806;2023-11-21T09:18:13;101646.16;;;18.97;64.72
77263;BME280;66373;52.334;4.806;2023-11-21T09:20:39;101620.28;;;18.82;65.06
77263;BME280;66373;52.334;4.806;2023-11-21T09:23:08;101619.50;;;18.76;64.90
77263;BME280;66373;52.334;4.806;2023-11-21T09:25:35;101645.38;;;18.94;64.38
77263;BME280;66373;52.334;4.806;2023-11-21T09:28:03;101648.88;;;18.90;64.94
77263;BME280;66373;52.334;4.806;2023-11-21T09:30:35;101654.94;;;18.92;64.43
77263;BME280;66373;52.334;4.806;2023-11-21T09:33:03;101673.97;;;18.97;65.01
77263;BME280;66373;52.334;4.806;2023-11-21T09:35:30;101665.41;;;18.89;64.70
77263;BME280;66373;52.334;4.806;2023-11-21T09:37:57;101681.00;;;18.95;64.58
77263;BME280;66373;52.334;4.806;2023-11-21T09:40:27;101681.84;;;18.95;64.80
77263;BME280;66373;52.334;4.806;2023-11-21T09:42:57;101670.63;;;18.87;64.61
77263;BME280;66373;52.334;4.806;2023-11-21T09:45:28;101699.25;;;18.95;64.46
77263;BME280;66373;52.334;4.806;2023-11-21T09:47:58;101695.75;;;18.96;64.83
77263;BME280;66373;52.334;4.806;2023-11-21T09:50:25;101697.53;;;18.91;64.89
77263;BME280;66373;52.334;4.806;2023-11-21T09:52:58;101704.47;;;18.95;64.37
77263;BME280;66373;52.334;4.806;2023-11-21T09:55:34;101700.22;;;18.85;63.85
77263;BME280;66373;52.334;4.806;2023-11-21T09:58:03;101673.53;;;18.58;64.38
77263;BME280;66373;52.334;4.806;2023-11-21T10:00:33;101740.09;;;18.94;64.29
77263;BME280;66373;52.334;4.806;2023-11-21T10:03:05;101727.13;;;18.87;64.57
77263;BME280;66373;52.334;4.806;2023-11-21T10:05:35;101709.88;;;18.74;63.99
77263;BME280;66373;52.334;4.806;2023-11-21T10:08:04;101680.50;;;18.56;64.22
77263;BME280;66373;52.334;4.806;2023-11-21T10:10:35;101711.69;;;18.69;64.25
77263;BME280;66373;52.334;4.806;2023-11-21T10:13:11;101705.69;;;18.60;64.55
77263;BME280;66373;52.334;4.806;2023-11-21T10:15:42;101763.56;;;18.93;64.58
77263;BME280;66373;52.334;4.806;2023-11-21T10:18:16;101699.59;;;18.58;64.13
77263;BME280;66373;52.334;4.806;2023-11-21T10:20:46;101744.56;;;18.82;64.19
77263;BME280;66373;52.334;4.806;2023-11-21T10:23:18;101744.63;;;18.73;64.33
77263;BME280;66373;52.334;4.806;2023-11-21T10:25:48;101687.53;;;18.45;64.29
77263;BME280;66373;52.334;4.806;2023-11-21T10:28:17;101722.16;;;18.62;64.43
77263;BME280;66373;52.334;4.806;2023-11-21T10:30:55;101755.03;;;18.76;64.44
77263;BME280;66373;52.334;4.806;2023-11-21T10:33:31;101757.66;;;18.74;64.40
77263;BME280;66373;52.334;4.806;2023-11-21T10:36:08;101668.69;;;18.19;64.15
77263;BME280;66373;52.334;4.806;2023-11-21T10:38:42;101722.31;;;18.44;63.47
77263;BME280;66373;52.334;4.806;2023-11-21T10:41:15;101762.88;;;18.73;64.23
77263;BME280;66373;52.334;4.806;2023-11-21T10:43:45;101680.81;;;18.21;63.78
77263;BME280;66373;52.334;4.806;2023-11-21T10:46:14;101794.91;;;18.87;64.05
77263;BME280;66373;52.334;4.806;2023-11-21T10:48:43;101755.19;;;18.60;63.62
77263;BME280;66373;52.334;4.806;2023-11-21T10:51:12;101781.19;;;18.70;63.53
77263;BME280;66373;52.334;4.806;2023-11-21T10:53:39;101786.34;;;18.73;63.53
77263;BME280;66373;52.334;4.806;2023-11-21T10:56:08;101801.88;;;18.85;63.61
77263;BME280;66373;52.334;4.806;2023-11-21T10:58:38;101785.44;;;18.75;63.60
77263;BME280;66373;52.334;4.806;2023-11-21T11:01:06;101737.97;;;18.40;63.44
77263;BME280;66373;52.334;4.806;2023-11-21T11:03:37;101777.75;;;18.58;63.36
77263;BME280;66373;52.334;4.806;2023-11-21T11:06:07;101795.09;;;18.69;63.76
77263;BME280;66373;52.334;4.806;2023-11-21T11:08:37;101814.09;;;18.77;64.37
77263;BME280;66373;52.334;4.806;2023-11-21T11:11:05;101808.88;;;18.77;64.58
77263;BME280;66373;52.334;4.806;2023-11-21T11:13:32;101755.31;;;18.42;64.70
77263;BME280;66373;52.334;4.806;2023-11-21T11:16:00;101813.19;;;18.84;64.81
77263;BME280;66373;52.334;4.806;2023-11-21T11:18:29;101803.69;;;18.74;64.78
77263;BME280;66373;52.334;4.806;2023-11-21T11:21:05;101824.44;;;18.87;64.81
77263;BME280;66373;52.334;4.806;2023-11-21T11:23:49;101760.53;;;18.44;64.47
77263;BME280;66373;52.334;4.806;2023-11-21T11:26:32;101810.59;;;18.81;64.71
77263;BME280;66373;52.334;4.806;2023-11-21T11:29:12;101815.78;;;18.84;64.89
77263;BME280;66373;52.334;4.806;2023-11-21T11:31:52;101822.69;;;18.91;64.93
77263;BME280;66373;52.334;4.806;2023-11-21T11:34:28;101804.56;;;18.73;64.52
77263;BME280;66373;52.334;4.806;2023-11-21T11:37:00;101832.28;;;18.87;64.59
77263;BME280;66373;52.334;4.806;2023-11-21T11:39:34;101807.13;;;18.79;64.75
77263;BME280;66373;52.334;4.806;2023-11-21T11:42:03;101827.91;;;18.91;64.52
77263;BME280;66373;52.334;4.806;2023-11-21T11:44:50;101798.50;;;18.74;64.37
77263;BME280;66373;52.334;4.806;2023-11-21T11:47:23;101789.91;;;18.66;64.34
77263;BME280;66373;52.334;4.806;2023-11-21T11:50:04;101808.91;;;18.75;64.36
77263;BME280;66373;52.334;4.806;2023-11-21T11:52:38;101825.34;;;18.85;64.55
77263;BME280;66373;52.334;4.806;2023-11-21T11:55:08;101834.03;;;18.82;64.27
77263;BME280;66373;52.334;4.806;2023-11-21T11:57:40;101851.41;;;18.86;64.79
77263;BME280;66373;52.334;4.806;2023-11-21T12:00:09;101843.59;;;18.85;63.95
77263;BME280;66373;52.334;4.806;2023-11-21T12:02:36;101848.78;;;18.88;64.55
77263;BME280;66373;52.334;4.806;2023-11-21T12:05:09;101841.03;;;18.77;64.71
77263;BME280;66373;52.334;4.806;2023-11-21T12:07:44;101787.38;;;18.47;64.44
77263;BME280;66373;52.334;4.806;2023-11-21T12:10:16;101840.16;;;18.77;64.56
77263;BME280;66373;52.334;4.806;2023-11-21T12:12:45;101866.19;;;18.86;64.64
77263;BME280;66373;52.334;4.806;2023-11-21T12:15:13;101854.06;;;18.79;64.62
77263;BME280;66373;52.334;4.806;2023-11-21T12:17:41;101874.84;;;18.86;64.64
77263;BME280;66373;52.334;4.806;2023-11-21T12:20:10;101874.84;;;18.86;64.43
77263;BME280;66373;52.334;4.806;2023-11-21T12:22:45;101865.31;;;18.82;64.59
77263;BME280;66373;52.334;4.806;2023-11-21T12:25:18;101870.53;;;18.85;64.72
77263;BME280;66373;52.334;4.806;2023-11-21T12:27:46;101875.75;;;18.85;64.40
77263;BME280;66373;52.334;4.806;2023-11-21T12:30:16;101873.16;;;18.81;64.83
77263;BME280;66373;52.334;4.806;2023-11-21T12:32:44;101891.38;;;18.85;64.88
77263;BME280;66373;52.334;4.806;2023-11-21T12:35:12;101889.63;;;18.86;65.28
77263;BME280;66373;52.334;4.806;2023-11-21T12:37:40;101880.13;;;18.79;64.92
77263;BME280;66373;52.334;4.806;2023-11-21T12:40:09;101893.09;;;18.86;64.61
77263;BME280;66373;52.334;4.806;2023-11-21T12:42:42;101900.91;;;18.88;64.73
77263;BME280;66373;52.334;4.806;2023-11-21T12:45:18;101890.56;;;18.77;64.68
77263;BME280;66373;52.334;4.806;2023-11-21T12:47:47;101886.25;;;18.73;64.73
77263;BME280;66373;52.334;4.806;2023-11-21T12:50:15;101882.00;;;18.58;64.17
77263;BME280;66373;52.334;4.806;2023-11-21T12:52:43;101899.25;;;18.75;64.42
77263;BME280;66373;52.334;4.806;2023-11-21T12:55:15;101919.19;;;18.83;64.54
77263;BME280;66373;52.334;4.806;2023-11-21T12:57:45;101880.28;;;18.60;64.47
77263;BME280;66373;52.334;4.806;2023-11-21T13:00:13;101925.28;;;18.84;64.29